Time;durP1;ratioP1;P1;durP2;ratioP2;P2;SDS_P1;SDS_P2;PMS_P1;PMS_P2;Temp;Humidity;BMP_temperature;BMP_pressure;BME280_temperature;BME280_humidity;BME280_pressure;Samples;Min_cycle;Max_cycle;Signal;HPM_P1;HPM_P2
2022/08/31 00:05:21;;;;;;;;;;;22.90;42.30;;;;;;5104138;28;20365;-61
2022/08/31 00:07:48;;;;;;;;;;;22.90;42.30;;;;;;5090990;28;19924;-61
2022/08/31 00:10:17;;;;;;;;;;;22.90;42.30;;;;;;5085832;28;19932;-62
2022/08/31 00:12:45;;;;;;;;;;;22.90;42.30;;;;;;5097381;28;19959;-62
2022/08/31 00:15:13;;;;;;;;;;;22.90;42.40;;;;;;5088751;28;19931;-62
2022/08/31 00:17:40;;;;;;;;;;;22.90;42.40;;;;;;5088477;28;19942;-62
2022/08/31 00:20:07;;;;;;;;;;;22.90;42.40;;;;;;5089466;28;19920;-62
2022/08/31 00:22:34;;;;;;;;;;;22.90;42.40;;;;;;5090237;28;19967;-62
2022/08/31 00:25:00;;;;;;;;;;;22.90;42.40;;;;;;5105354;28;19978;-63
2022/08/31 00:27:29;;;;;;;;;;;22.90;42.40;;;;;;5083632;28;19940;-62
2022/08/31 00:29:55;;;;;;;;;;;22.90;42.40;;;;;;5099594;28;19943;-62
2022/08/31 00:32:22;;;;;;;;;;;22.90;42.40;;;;;;5101607;28;19923;-62
2022/08/31 00:34:51;;;;;;;;;;;22.90;42.40;;;;;;5088038;28;19939;-62
2022/08/31 00:37:17;;;;;;;;;;;22.90;42.40;;;;;;5073317;28;19932;-61
2022/08/31 00:39:44;;;;;;;;;;;22.90;42.40;;;;;;5103065;28;20351;-61
2022/08/31 00:42:12;;;;;;;;;;;22.90;42.40;;;;;;5103374;28;19920;-63
2022/08/31 00:44:40;;;;;;;;;;;22.90;42.40;;;;;;5082110;28;19932;-62
2022/08/31 00:47:09;;;;;;;;;;;22.90;42.40;;;;;;5084586;28;20422;-61
2022/08/31 00:49:36;;;;;;;;;;;22.90;42.40;;;;;;5102294;27;19942;-61
2022/08/31 00:52:03;;;;;;;;;;;22.90;42.50;;;;;;5102209;28;19968;-61
2022/08/31 00:54:32;;;;;;;;;;;22.90;42.50;;;;;;5087878;28;20357;-61
2022/08/31 00:56:58;;;;;;;;;;;22.90;42.50;;;;;;5105902;28;19965;-61
2022/08/31 00:59:25;;;;;;;;;;;22.90;42.40;;;;;;5088707;28;20007;-61
2022/08/31 01:01:53;;;;;;;;;;;22.90;42.50;;;;;;5098662;27;19924;-61
2022/08/31 01:04:20;;;;;;;;;;;22.90;42.50;;;;;;5083971;28;19920;-61
2022/08/31 01:06:47;;;;;;;;;;;22.90;42.40;;;;;;5103744;28;19927;-61
2022/08/31 01:09:14;;;;;;;;;;;22.90;42.50;;;;;;5100104;28;19925;-61
2022/08/31 01:11:41;;;;;;;;;;;22.90;42.50;;;;;;5088477;28;19974;-61
2022/08/31 01:14:08;;;;;;;;;;;22.90;42.50;;;;;;5106554;28;19920;-61
2022/08/31 01:16:35;;;;;;;;;;;22.90;42.50;;;;;;5092101;28;19920;-61
2022/08/31 01:19:04;;;;;;;;;;;22.90;42.50;;;;;;5102963;28;19955;-61
2022/08/31 01:21:32;;;;;;;;;;;22.90;42.50;;;;;;5088427;28;19920;-61
2022/08/31 01:24:00;;;;;;;;;;;22.90;42.50;;;;;;5088860;28;19931;-61
2022/08/31 01:26:28;;;;;;;;;;;22.90;43.10;;;;;;5104208;28;19946;-61
2022/08/31 01:28:57;;;;;;;;;;;22.90;42.50;;;;;;5090743;28;20304;-61
2022/08/31 01:31:24;;;;;;;;;;;22.80;42.40;;;;;;5105293;28;19928;-61
2022/08/31 01:33:51;;;;;;;;;;;22.80;43.00;;;;;;5084217;28;19924;-61
2022/08/31 01:36:17;;;;;;;;;;;22.80;42.50;;;;;;5104461;28;19931;-61
2022/08/31 01:38:44;;;;;;;;;;;22.80;42.50;;;;;;5108397;28;19931;-61
2022/08/31 01:41:12;;;;;;;;;;;22.80;42.50;;;;;;5092834;28;19955;-61
2022/08/31 01:43:39;;;;;;;;;;;22.90;42.60;;;;;;5092221;28;19924;-61
2022/08/31 01:46:08;;;;;;;;;;;22.90;42.60;;;;;;5090579;28;20025;-61
2022/08/31 01:48:34;;;;;;;;;;;22.80;42.50;;;;;;5107287;28;19920;-61
2022/08/31 01:51:01;;;;;;;;;;;22.80;42.50;;;;;;5092110;28;19920;-61
2022/08/31 01:53:28;;;;;;;;;;;22.80;42.50;;;;;;5091290;28;19951;-61
2022/08/31 01:55:54;;;;;;;;;;;22.80;42.50;;;;;;5089801;28;19927;-60
2022/08/31 01:58:22;;;;;;;;;;;22.80;42.60;;;;;;5090135;28;19931;-62
2022/08/31 02:00:49;;;;;;;;;;;22.80;42.60;;;;;;5110421;27;19963;-61
2022/08/31 02:03:16;;;;;;;;;;;22.80;42.60;;;;;;5090472;28;19974;-61
2022/08/31 02:05:43;;;;;;;;;;;22.80;42.60;;;;;;5087665;28;19943;-61
2022/08/31 02:08:09;;;;;;;;;;;22.80;42.70;;;;;;5107286;28;19970;-61
2022/08/31 02:10:36;;;;;;;;;;;22.80;42.70;;;;;;5090337;28;19945;-61
2022/08/31 02:13:03;;;;;;;;;;;22.80;42.70;;;;;;5088412;28;20010;-61
2022/08/31 02:15:31;;;;;;;;;;;22.80;42.70;;;;;;5093053;28;20017;-61
2022/08/31 02:17:58;;;;;;;;;;;22.80;42.70;;;;;;5091789;28;19954;-61
2022/08/31 02:20:25;;;;;;;;;;;22.80;42.70;;;;;;5090801;28;19935;-61
2022/08/31 02:22:52;;;;;;;;;;;22.80;42.70;;;;;;5107883;28;20039;-61
2022/08/31 02:25:19;;;;;;;;;;;22.80;42.70;;;;;;5092475;28;19932;-61
2022/08/31 02:27:46;;;;;;;;;;;22.80;42.70;;;;;;5108732;28;19924;-61
2022/08/31 02:30:14;;;;;;;;;;;22.80;42.70;;;;;;5107259;28;19924;-61
2022/08/31 02:32:42;;;;;;;;;;;22.80;42.70;;;;;;5087404;28;20171;-61
2022/08/31 02:35:09;;;;;;;;;;;22.80;42.70;;;;;;5107221;27;20294;-61
2022/08/31 02:37:35;;;;;;;;;;;22.80;42.70;;;;;;5092864;28;19955;-61
2022/08/31 02:40:02;;;;;;;;;;;22.80;42.70;;;;;;5090952;28;19979;-61
2022/08/31 02:42:29;;;;;;;;;;;22.80;42.80;;;;;;5107467;28;20068;-60
2022/08/31 02:44:56;;;;;;;;;;;22.80;42.80;;;;;;5107737;28;19919;-60
2022/08/31 02:47:23;;;;;;;;;;;22.80;42.80;;;;;;5105585;28;20023;-61
2022/08/31 02:49:51;;;;;;;;;;;22.70;42.70;;;;;;5090386;28;19976;-60
2022/08/31 02:52:18;;;;;;;;;;;22.80;42.80;;;;;;5104138;28;20389;-60
2022/08/31 02:54:45;;;;;;;;;;;22.70;42.80;;;;;;5090866;28;19969;-60
2022/08/31 02:57:11;;;;;;;;;;;22.80;42.90;;;;;;5092311;28;19927;-61
2022/08/31 02:59:38;;;;;;;;;;;22.80;42.80;;;;;;5107146;28;20003;-61
2022/08/31 03:02:05;;;;;;;;;;;22.70;42.80;;;;;;5089704;28;19971;-61
2022/08/31 03:04:32;;;;;;;;;;;22.80;42.90;;;;;;5092120;28;19966;-61
2022/08/31 03:07:00;;;;;;;;;;;22.70;43.50;;;;;;5105628;28;20019;-61
2022/08/31 03:09:26;;;;;;;;;;;22.70;42.80;;;;;;5089484;28;19924;-60
2022/08/31 03:11:53;;;;;;;;;;;22.80;42.90;;;;;;5091732;28;19920;-60
2022/08/31 03:14:20;;;;;;;;;;;22.80;42.90;;;;;;5090877;28;19954;-61
2022/08/31 03:16:47;;;;;;;;;;;22.70;42.90;;;;;;5107568;28;19926;-61
2022/08/31 03:19:13;;;;;;;;;;;22.70;42.90;;;;;;5107457;27;20397;-60
2022/08/31 03:21:40;;;;;;;;;;;22.70;42.90;;;;;;5090398;28;19951;-61
2022/08/31 03:24:09;;;;;;;;;;;22.80;43.00;;;;;;5081389;28;19932;-60
2022/08/31 03:26:35;;;;;;;;;;;22.70;42.90;;;;;;5089800;28;20019;-60
2022/08/31 03:29:02;;;;;;;;;;;22.80;43.00;;;;;;5092004;28;20102;-61
2022/08/31 03:31:30;;;;;;;;;;;22.70;42.90;;;;;;5089434;28;19920;-61
2022/08/31 03:33:57;;;;;;;;;;;22.70;42.90;;;;;;5089620;28;19927;-60
2022/08/31 03:36:24;;;;;;;;;;;22.80;43.10;;;;;;5087703;28;20007;-61
2022/08/31 03:38:51;;;;;;;;;;;22.70;43.00;;;;;;5086724;28;19970;-60
2022/08/31 03:41:20;;;;;;;;;;;22.70;43.00;;;;;;5107787;27;19920;-61
2022/08/31 03:43:46;;;;;;;;;;;22.70;43.00;;;;;;5087781;28;20019;-61
2022/08/31 03:46:13;;;;;;;;;;;22.70;43.10;;;;;;5089718;28;20011;-61
2022/08/31 03:48:40;;;;;;;;;;;22.80;43.20;;;;;;5089536;28;19920;-61
2022/08/31 03:51:07;;;;;;;;;;;22.70;43.10;;;;;;5104379;28;20004;-61
2022/08/31 03:53:34;;;;;;;;;;;22.70;43.10;;;;;;5089288;28;19920;-61
2022/08/31 03:56:02;;;;;;;;;;;22.70;43.10;;;;;;5107055;28;20284;-61
2022/08/31 03:58:31;;;;;;;;;;;22.70;43.10;;;;;;5091517;28;19966;-61
2022/08/31 04:00:58;;;;;;;;;;;22.70;43.10;;;;;;5090101;28;19924;-61
2022/08/31 04:03:25;;;;;;;;;;;22.70;43.20;;;;;;5101100;27;19946;-61
2022/08/31 04:05:51;;;;;;;;;;;22.70;43.20;;;;;;5105737;28;20014;-61
2022/08/31 04:08:18;;;;;;;;;;;22.70;43.20;;;;;;5105680;28;19966;-61
2022/08/31 04:10:45;;;;;;;;;;;22.70;43.20;;;;;;5102566;28;19946;-61
2022/08/31 04:13:12;;;;;;;;;;;22.70;43.30;;;;;;5089012;28;19920;-61
2022/08/31 04:15:42;;;;;;;;;;;22.70;43.30;;;;;;5089618;28;19927;-61
2022/08/31 04:18:09;;;;;;;;;;;22.70;43.30;;;;;;5091191;28;20046;-61
2022/08/31 04:20:35;;;;;;;;;;;22.70;43.30;;;;;;5104989;27;19990;-61
2022/08/31 04:23:02;;;;;;;;;;;22.70;43.30;;;;;;5090791;28;19928;-61
2022/08/31 04:25:29;;;;;;;;;;;22.70;43.30;;;;;;5104964;28;19989;-62
2022/08/31 04:27:56;;;;;;;;;;;22.70;43.30;;;;;;5099170;28;19920;-61
2022/08/31 04:30:23;;;;;;;;;;;22.70;43.30;;;;;;5090659;28;19920;-61
2022/08/31 04:32:51;;;;;;;;;;;22.70;43.30;;;;;;5092557;28;19965;-61
2022/08/31 04:35:18;;;;;;;;;;;22.70;43.30;;;;;;5103713;28;20001;-61
2022/08/31 04:37:45;;;;;;;;;;;22.70;43.30;;;;;;5088600;28;19935;-61
2022/08/31 04:40:18;;;;;;;;;;;22.70;43.80;;;;;;5106765;27;19959;-61
2022/08/31 04:42:45;;;;;;;;;;;22.70;43.40;;;;;;5098925;28;19934;-61
2022/08/31 04:45:12;;;;;;;;;;;22.70;43.40;;;;;;5100541;27;19965;-61
2022/08/31 04:47:40;;;;;;;;;;;22.60;43.30;;;;;;5104164;28;19936;-62
2022/08/31 04:50:09;;;;;;;;;;;22.60;43.30;;;;;;5090895;28;19939;-61
2022/08/31 04:52:36;;;;;;;;;;;22.70;43.40;;;;;;5103446;28;19935;-62
2022/08/31 04:55:03;;;;;;;;;;;22.60;43.40;;;;;;5088564;28;19939;-61
2022/08/31 04:57:30;;;;;;;;;;;22.70;43.50;;;;;;5103765;28;19966;-61
2022/08/31 04:59:57;;;;;;;;;;;22.60;43.40;;;;;;5087644;28;19920;-62
2022/08/31 05:02:23;;;;;;;;;;;22.60;43.40;;;;;;5084347;28;19920;-60
2022/08/31 05:04:50;;;;;;;;;;;22.70;43.50;;;;;;5102925;28;19973;-61
2022/08/31 05:07:19;;;;;;;;;;;22.60;43.50;;;;;;5090815;28;19961;-61
2022/08/31 05:09:45;;;;;;;;;;;22.60;43.50;;;;;;5103305;28;19931;-60
2022/08/31 05:12:12;;;;;;;;;;;22.70;43.60;;;;;;5087135;28;19932;-60
2022/08/31 05:14:39;;;;;;;;;;;22.70;43.60;;;;;;5089850;28;19934;-60
2022/08/31 05:17:06;;;;;;;;;;;22.70;43.60;;;;;;5078871;28;19931;-61
2022/08/31 05:19:33;;;;;;;;;;;22.60;43.50;;;;;;5084639;28;20365;-61
2022/08/31 05:22:00;;;;;;;;;;;22.60;43.50;;;;;;5089547;28;20434;-61
2022/08/31 05:24:34;;;;;;;;;;;22.60;43.50;;;;;;5087527;28;19928;-61
2022/08/31 05:27:01;;;;;;;;;;;22.60;43.50;;;;;;5088591;28;19921;-62
2022/08/31 05:29:28;;;;;;;;;;;22.60;43.60;;;;;;5102387;28;19963;-62
2022/08/31 05:31:55;;;;;;;;;;;22.60;43.60;;;;;;5085995;28;19920;-62
2022/08/31 05:34:23;;;;;;;;;;;22.60;43.60;;;;;;5088913;28;19924;-62
2022/08/31 05:36:50;;;;;;;;;;;22.70;43.80;;;;;;5105541;28;19920;-62
2022/08/31 05:39:17;;;;;;;;;;;22.70;43.80;;;;;;5104995;28;19973;-61
2022/08/31 05:41:45;;;;;;;;;;;22.60;43.80;;;;;;5091006;28;19932;-61
2022/08/31 05:44:12;;;;;;;;;;;22.60;43.80;;;;;;5105062;28;19946;-61
2022/08/31 05:46:38;;;;;;;;;;;22.70;43.90;;;;;;5102427;28;19930;-61
2022/08/31 05:49:06;;;;;;;;;;;22.60;43.90;;;;;;5095486;28;20330;-61
2022/08/31 05:51:32;;;;;;;;;;;22.60;43.90;;;;;;5100943;28;20160;-61
2022/08/31 05:53:59;;;;;;;;;;;22.70;44.00;;;;;;5101257;28;20387;-61
2022/08/31 05:56:26;;;;;;;;;;;22.70;44.00;;;;;;5102623;28;19930;-61
2022/08/31 05:58:54;;;;;;;;;;;22.70;44.10;;;;;;5087607;28;19963;-61
2022/08/31 06:01:22;;;;;;;;;;;22.70;44.10;;;;;;5103473;28;19920;-61
2022/08/31 06:03:49;;;;;;;;;;;22.70;44.10;;;;;;5101125;28;19931;-61
2022/08/31 06:06:15;;;;;;;;;;;22.70;44.70;;;;;;5089608;28;19924;-61
2022/08/31 06:08:42;;;;;;;;;;;22.70;44.10;;;;;;5102225;28;19924;-61
2022/08/31 06:11:18;;;;;;;;;;;22.70;44.10;;;;;;5102119;28;19927;-61
2022/08/31 06:13:44;;;;;;;;;;;22.70;44.10;;;;;;5103210;28;19949;-61
2022/08/31 06:16:13;;;;;;;;;;;22.70;44.10;;;;;;5087658;28;19972;-61
2022/08/31 06:18:42;;;;;;;;;;;22.70;44.10;;;;;;5085052;28;19927;-61
2022/08/31 06:21:11;;;;;;;;;;;22.70;44.10;;;;;;5100001;28;20384;-61
2022/08/31 06:23:38;;;;;;;;;;;22.70;44.10;;;;;;5106244;28;19973;-61
2022/08/31 06:26:05;;;;;;;;;;;22.70;44.10;;;;;;5090840;28;19966;-61
2022/08/31 06:28:32;;;;;;;;;;;22.70;44.80;;;;;;5105947;28;19921;-61
2022/08/31 06:30:59;;;;;;;;;;;22.70;44.20;;;;;;5091837;28;19920;-61
2022/08/31 06:33:28;;;;;;;;;;;22.70;44.20;;;;;;5091328;28;19927;-61
2022/08/31 06:35:54;;;;;;;;;;;22.70;44.20;;;;;;5091193;28;19920;-61
2022/08/31 06:38:21;;;;;;;;;;;22.70;44.20;;;;;;5090985;28;20065;-62
2022/08/31 06:40:48;;;;;;;;;;;22.70;44.20;;;;;;5103614;27;19924;-62
2022/08/31 06:43:15;;;;;;;;;;;22.70;44.20;;;;;;5099398;28;19927;-61
2022/08/31 06:45:41;;;;;;;;;;;22.70;44.20;;;;;;5083727;28;19967;-61
2022/08/31 06:48:08;;;;;;;;;;;22.70;44.20;;;;;;5087228;28;19931;-61
2022/08/31 06:50:37;;;;;;;;;;;22.70;44.20;;;;;;5092713;28;19989;-62
2022/08/31 06:53:04;;;;;;;;;;;22.70;44.30;;;;;;5081262;28;19924;-62
2022/08/31 06:55:31;;;;;;;;;;;22.80;44.40;;;;;;5097712;27;19924;-61
2022/08/31 06:57:58;;;;;;;;;;;22.70;44.30;;;;;;5077820;28;19959;-61
2022/08/31 07:00:24;;;;;;;;;;;22.80;44.40;;;;;;5098221;27;19946;-62
2022/08/31 07:02:51;;;;;;;;;;;22.70;44.30;;;;;;5096316;27;19956;-61
2022/08/31 07:05:18;;;;;;;;;;;22.80;44.50;;;;;;5089482;28;20380;-61
2022/08/31 07:07:47;;;;;;;;;;;22.70;44.30;;;;;;5084412;28;19971;-63
2022/08/31 07:10:14;;;;;;;;;;;22.80;44.50;;;;;;5101225;27;20030;-62
2022/08/31 07:12:43;;;;;;;;;;;22.80;44.50;;;;;;5100099;27;20616;-62
2022/08/31 07:15:10;;;;;;;;;;;22.80;44.50;;;;;;5095023;27;19930;-62
2022/08/31 07:17:37;;;;;;;;;;;22.80;44.50;;;;;;5084454;28;19967;-63
2022/08/31 07:20:04;;;;;;;;;;;22.80;44.50;;;;;;5079398;28;19955;-63
2022/08/31 07:22:31;;;;;;;;;;;22.80;44.50;;;;;;5079341;28;19928;-63
2022/08/31 07:24:59;;;;;;;;;;;22.80;44.40;;;;;;5094385;28;19924;-62
2022/08/31 07:27:26;;;;;;;;;;;22.90;44.60;;;;;;5085558;28;19956;-61
2022/08/31 07:29:52;;;;;;;;;;;22.90;44.50;;;;;;5096724;27;19940;-63
2022/08/31 07:32:19;;;;;;;;;;;22.80;44.50;;;;;;5094304;27;20332;-63
2022/08/31 07:34:46;;;;;;;;;;;22.80;44.50;;;;;;5076399;28;19982;-63
2022/08/31 07:42:45;;;;;;;;;;;22.90;44.60;;;;;;5083508;28;20331;-62
2022/08/31 07:45:12;;;;;;;;;;;22.90;44.60;;;;;;5097865;28;19927;-62
2022/08/31 07:47:45;;;;;;;;;;;22.90;44.50;;;;;;5080832;28;19935;-62
2022/08/31 07:50:13;;;;;;;;;;;22.90;44.50;;;;;;5086063;28;19943;-62
2022/08/31 07:52:45;;;;;;;;;;;22.90;44.50;;;;;;5088401;28;19932;-61
2022/08/31 07:55:12;;;;;;;;;;;22.90;44.50;;;;;;5097523;28;19920;-62
2022/08/31 07:57:41;;;;;;;;;;;22.90;44.50;;;;;;5086472;28;19932;-61
2022/08/31 08:00:13;;;;;;;;;;;22.90;44.50;;;;;;5098044;27;19932;-62
2022/08/31 08:02:40;;;;;;;;;;;22.90;44.50;;;;;;5103844;28;19939;-62
2022/08/31 08:05:07;;;;;;;;;;;22.90;44.50;;;;;;5102198;28;19970;-63
2022/08/31 08:07:34;;;;;;;;;;;22.90;44.50;;;;;;5088894;28;19927;-62
2022/08/31 08:10:01;;;;;;;;;;;23.00;44.50;;;;;;5082283;28;20373;-61
2022/08/31 08:12:28;;;;;;;;;;;22.90;44.50;;;;;;5079569;28;19928;-62
2022/08/31 08:14:57;;;;;;;;;;;22.90;44.50;;;;;;5086462;28;19964;-61
2022/08/31 08:17:25;;;;;;;;;;;22.90;44.50;;;;;;5098165;28;19927;-61
2022/08/31 08:19:51;;;;;;;;;;;23.00;44.60;;;;;;5083070;28;20034;-61
2022/08/31 08:22:18;;;;;;;;;;;23.00;44.60;;;;;;5101264;28;20350;-61
2022/08/31 08:24:46;;;;;;;;;;;23.00;44.60;;;;;;5102423;28;19970;-62
2022/08/31 08:27:13;;;;;;;;;;;23.00;44.60;;;;;;5101093;27;19952;-61
2022/08/31 08:29:40;;;;;;;;;;;23.00;44.50;;;;;;5086953;28;19932;-62
2022/08/31 08:32:07;;;;;;;;;;;23.00;44.50;;;;;;5084925;28;21290;-62
2022/08/31 08:34:35;;;;;;;;;;;23.00;44.50;;;;;;5078998;28;19921;-62
2022/08/31 08:37:03;;;;;;;;;;;23.00;44.50;;;;;;5082934;28;19924;-63
2022/08/31 08:39:29;;;;;;;;;;;23.00;44.40;;;;;;5081674;28;19926;-62
2022/08/31 08:41:56;;;;;;;;;;;23.00;44.40;;;;;;5100946;28;19973;-62
2022/08/31 08:44:23;;;;;;;;;;;23.00;44.40;;;;;;5082638;28;19926;-62
2022/08/31 08:46:51;;;;;;;;;;;23.00;45.00;;;;;;5082158;28;20006;-63
2022/08/31 08:49:21;;;;;;;;;;;23.00;44.40;;;;;;5101371;28;20026;-61
2022/08/31 08:51:50;;;;;;;;;;;23.00;44.30;;;;;;5081453;28;19931;-60
2022/08/31 08:54:21;;;;;;;;;;;23.00;44.30;;;;;;5094516;28;19928;-61
2022/08/31 08:56:48;;;;;;;;;;;23.00;44.30;;;;;;5088598;28;19924;-60
2022/08/31 08:59:15;;;;;;;;;;;23.00;44.20;;;;;;5104093;27;20262;-61
2022/08/31 09:01:45;;;;;;;;;;;23.00;44.20;;;;;;5103995;28;20388;-62
2022/08/31 09:04:16;;;;;;;;;;;23.00;44.20;;;;;;5086428;28;20328;-61
2022/08/31 09:06:45;;;;;;;;;;;23.00;44.10;;;;;;5099482;27;19925;-62
2022/08/31 09:09:30;;;;;;;;;;;23.00;44.10;;;;;;5082335;28;19931;-62
2022/08/31 09:12:03;;;;;;;;;;;23.00;44.10;;;;;;5088069;28;20357;-62
2022/08/31 09:14:47;;;;;;;;;;;23.00;44.10;;;;;;5080982;28;20448;-62
2022/08/31 09:17:16;;;;;;;;;;;23.00;44.10;;;;;;5084418;28;19935;-61
2022/08/31 09:19:58;;;;;;;;;;;23.00;44.20;;;;;;5085203;28;19927;-61
2022/08/31 09:22:25;;;;;;;;;;;23.00;44.10;;;;;;5098479;28;20015;-61
2022/08/31 09:24:58;;;;;;;;;;;23.00;44.10;;;;;;5098135;28;19962;-61
2022/08/31 09:27:45;;;;;;;;;;;23.10;44.10;;;;;;5085443;28;19955;-61
2022/08/31 09:30:16;;;;;;;;;;;23.00;44.00;;;;;;5099956;28;19921;-61
2022/08/31 09:32:52;;;;;;;;;;;23.00;44.00;;;;;;5083589;28;20008;-61
2022/08/31 09:35:22;;;;;;;;;;;23.00;44.00;;;;;;5102108;28;20953;-61
2022/08/31 09:37:57;;;;;;;;;;;23.00;43.90;;;;;;5083939;28;19920;-62
2022/08/31 09:40:34;;;;;;;;;;;23.10;43.90;;;;;;5103805;28;20587;-61
2022/08/31 09:43:03;;;;;;;;;;;23.10;43.90;;;;;;5100299;28;20349;-61
2022/08/31 09:45:34;;;;;;;;;;;23.10;43.80;;;;;;5095462;28;19939;-62
2022/08/31 09:48:00;;;;;;;;;;;23.10;43.70;;;;;;5098502;28;19932;-61
2022/08/31 09:50:29;;;;;;;;;;;23.00;43.50;;;;;;5076721;28;19931;-61
2022/08/31 09:55:50;;;;;;;;;;;23.10;43.50;;;;;;5089269;28;20197;-61
2022/08/31 09:58:20;;;;;;;;;;;23.10;43.50;;;;;;5088895;28;20265;-61
2022/08/31 10:00:51;;;;;;;;;;;23.10;43.50;;;;;;5104323;28;20000;-61
2022/08/31 10:03:18;;;;;;;;;;;23.10;43.50;;;;;;5086526;28;19966;-62
2022/08/31 10:05:45;;;;;;;;;;;23.10;43.50;;;;;;5103750;28;20389;-62
2022/08/31 10:08:20;;;;;;;;;;;23.10;43.50;;;;;;5085676;28;19980;-61
2022/08/31 10:10:47;;;;;;;;;;;23.10;43.50;;;;;;5082271;28;20267;-62
2022/08/31 10:13:15;;;;;;;;;;;23.10;43.50;;;;;;5105476;28;19924;-61
2022/08/31 10:15:44;;;;;;;;;;;23.10;43.40;;;;;;5106657;28;19952;-61
2022/08/31 10:18:12;;;;;;;;;;;23.10;43.30;;;;;;5106445;27;20336;-61
2022/08/31 10:20:41;;;;;;;;;;;23.10;43.30;;;;;;5102767;28;19947;-61
2022/08/31 10:23:13;;;;;;;;;;;23.10;43.30;;;;;;5086547;28;20369;-62
2022/08/31 10:25:41;;;;;;;;;;;23.10;43.20;;;;;;5106206;28;19920;-62
2022/08/31 10:28:13;;;;;;;;;;;23.10;43.20;;;;;;5102250;28;20288;-62
2022/08/31 10:30:40;;;;;;;;;;;23.10;43.20;;;;;;5082919;28;19932;-62
2022/08/31 10:33:10;;;;;;;;;;;23.10;43.20;;;;;;5085355;28;19930;-62
2022/08/31 10:35:41;;;;;;;;;;;23.10;43.20;;;;;;5087511;28;19927;-61
2022/08/31 10:38:14;;;;;;;;;;;23.10;43.20;;;;;;5102405;28;19927;-60
2022/08/31 10:40:44;;;;;;;;;;;23.10;43.20;;;;;;5103269;28;19932;-61
2022/08/31 10:43:13;;;;;;;;;;;23.10;43.20;;;;;;5088713;28;19932;-61
2022/08/31 10:45:40;;;;;;;;;;;23.10;43.20;;;;;;5106694;27;19934;-61
2022/08/31 10:48:09;;;;;;;;;;;23.10;43.20;;;;;;5087986;28;19954;-61
2022/08/31 10:50:43;;;;;;;;;;;23.10;43.20;;;;;;5105197;28;19927;-61
2022/08/31 10:53:14;;;;;;;;;;;23.10;43.20;;;;;;5093222;28;20356;-61
2022/08/31 10:55:45;;;;;;;;;;;23.10;43.10;;;;;;5093656;28;19920;-61
2022/08/31 10:58:13;;;;;;;;;;;23.10;43.20;;;;;;5078569;28;20365;-61
2022/08/31 11:00:45;;;;;;;;;;;23.10;43.20;;;;;;5105140;27;19932;-61
2022/08/31 11:03:13;;;;;;;;;;;23.10;42.90;;;;;;5107513;27;19920;-61
2022/08/31 11:05:42;;;;;;;;;;;23.10;42.50;;;;;;5099679;28;19971;-61
2022/08/31 11:08:18;;;;;;;;;;;23.10;42.10;;;;;;5103509;28;19931;-61
2022/08/31 11:10:47;;;;;;;;;;;23.10;41.80;;;;;;5086303;28;19920;-61
2022/08/31 11:13:16;;;;;;;;;;;23.00;41.60;;;;;;5088841;28;19985;-61
2022/08/31 11:15:57;;;;;;;;;;;23.00;41.40;;;;;;5088810;28;19924;-61
2022/08/31 11:18:50;;;;;;;;;;;23.00;41.20;;;;;;5104468;28;19970;-61
2022/08/31 11:21:35;;;;;;;;;;;22.90;41.00;;;;;;5103507;28;19920;-61
2022/08/31 11:24:23;;;;;;;;;;;22.90;40.90;;;;;;5090506;28;19924;-61
2022/08/31 11:26:51;;;;;;;;;;;22.90;40.90;;;;;;5056238;28;19966;-61
2022/08/31 11:29:23;;;;;;;;;;;22.90;40.70;;;;;;5099888;27;19927;-61
2022/08/31 11:31:53;;;;;;;;;;;22.90;40.80;;;;;;5109375;27;19932;-61
2022/08/31 11:34:24;;;;;;;;;;;22.80;40.80;;;;;;5086201;28;19934;-61
2022/08/31 11:36:52;;;;;;;;;;;22.80;40.90;;;;;;5095067;28;19927;-61
2022/08/31 11:39:21;;;;;;;;;;;22.80;41.10;;;;;;5089863;27;19959;-61
2022/08/31 11:41:48;;;;;;;;;;;22.80;41.20;;;;;;5083376;28;19920;-61
2022/08/31 11:44:35;;;;;;;;;;;22.80;41.20;;;;;;5095972;28;20013;-61
2022/08/31 11:47:03;;;;;;;;;;;22.80;41.30;;;;;;5057123;28;20491;-61
2022/08/31 11:49:37;;;;;;;;;;;22.80;41.40;;;;;;5080150;28;20022;-62
2022/08/31 11:52:13;;;;;;;;;;;22.80;41.60;;;;;;5104697;27;19927;-61
2022/08/31 11:55:00;;;;;;;;;;;22.90;41.80;;;;;;5099012;28;19932;-62
2022/08/31 11:57:30;;;;;;;;;;;22.90;41.90;;;;;;5084496;28;19950;-61
2022/08/31 11:59:57;;;;;;;;;;;22.90;42.10;;;;;;5088940;28;19926;-61
2022/08/31 12:02:42;;;;;;;;;;;22.90;42.10;;;;;;5087503;28;19971;-62
2022/08/31 12:05:09;;;;;;;;;;;22.90;42.20;;;;;;5104258;28;19969;-62
2022/08/31 12:07:40;;;;;;;;;;;22.90;42.10;;;;;;5086803;28;20349;-62
2022/08/31 12:10:21;;;;;;;;;;;22.90;42.20;;;;;;5090124;28;20380;-62
2022/08/31 12:12:56;;;;;;;;;;;22.90;42.30;;;;;;5085324;28;20027;-63
2022/08/31 12:15:25;;;;;;;;;;;23.00;42.30;;;;;;5100523;27;20056;-62
2022/08/31 12:17:56;;;;;;;;;;;23.00;42.40;;;;;;5083781;28;19924;-61
2022/08/31 12:20:27;;;;;;;;;;;23.00;42.40;;;;;;5086292;28;19961;-62
2022/08/31 12:25:44;;;;;;;;;;;23.00;42.40;;;;;;5103351;28;19924;-61
2022/08/31 12:28:14;;;;;;;;;;;23.00;42.40;;;;;;5097696;28;20274;-61
2022/08/31 12:30:47;;;;;;;;;;;23.00;42.40;;;;;;5087333;28;19990;-62
2022/08/31 12:33:15;;;;;;;;;;;23.10;42.50;;;;;;5083336;28;19952;-61
2022/08/31 12:35:42;;;;;;;;;;;23.10;42.50;;;;;;5101749;28;20003;-62
2022/08/31 12:38:10;;;;;;;;;;;23.10;42.60;;;;;;5100194;27;19935;-62
2022/08/31 12:40:41;;;;;;;;;;;23.10;42.60;;;;;;5102883;27;19920;-62
2022/08/31 12:43:09;;;;;;;;;;;23.10;42.70;;;;;;5102560;28;20011;-62
2022/08/31 12:45:39;;;;;;;;;;;23.10;42.70;;;;;;5086460;28;19988;-62
2022/08/31 12:48:08;;;;;;;;;;;23.10;42.70;;;;;;5085220;28;20365;-62
2022/08/31 12:50:36;;;;;;;;;;;23.10;42.70;;;;;;5107648;27;19949;-62
2022/08/31 12:53:08;;;;;;;;;;;23.10;42.70;;;;;;5079110;28;20006;-61
2022/08/31 12:55:39;;;;;;;;;;;23.10;42.70;;;;;;5086156;28;20002;-62
2022/08/31 12:58:13;;;;;;;;;;;23.10;42.70;;;;;;5088744;28;19924;-61
2022/08/31 13:00:42;;;;;;;;;;;23.20;42.70;;;;;;5086717;28;19927;-61
2022/08/31 13:03:16;;;;;;;;;;;23.10;42.60;;;;;;5083443;28;20706;-61
2022/08/31 13:05:45;;;;;;;;;;;23.20;42.70;;;;;;5106034;27;19951;-62
2022/08/31 13:08:21;;;;;;;;;;;23.20;42.70;;;;;;5088088;28;19994;-62
2022/08/31 13:10:49;;;;;;;;;;;23.20;42.70;;;;;;5088627;28;19920;-62
2022/08/31 13:13:20;;;;;;;;;;;23.20;42.60;;;;;;5085756;28;21340;-62
2022/08/31 13:15:47;;;;;;;;;;;23.20;42.60;;;;;;5103697;28;20439;-62
2022/08/31 13:18:14;;;;;;;;;;;23.20;42.60;;;;;;5087205;28;19981;-62
2022/08/31 13:20:42;;;;;;;;;;;23.20;42.60;;;;;;5105415;28;20004;-62
2022/08/31 13:23:11;;;;;;;;;;;23.20;43.20;;;;;;5084312;28;20374;-62
2022/08/31 13:25:38;;;;;;;;;;;23.20;43.20;;;;;;5087023;28;19920;-62
2022/08/31 13:28:09;;;;;;;;;;;23.20;42.60;;;;;;5080746;28;19954;-62
2022/08/31 13:30:37;;;;;;;;;;;23.20;42.60;;;;;;5099838;28;20270;-62
2022/08/31 13:33:23;;;;;;;;;;;23.20;42.70;;;;;;5096527;28;19982;-63
2022/08/31 13:35:51;;;;;;;;;;;23.20;42.70;;;;;;5102877;28;19920;-60
2022/08/31 13:38:27;;;;;;;;;;;23.20;42.60;;;;;;5096917;28;19927;-61
2022/08/31 13:40:54;;;;;;;;;;;23.20;42.60;;;;;;5101036;28;20014;-61
2022/08/31 13:43:25;;;;;;;;;;;23.20;42.70;;;;;;5086975;28;19927;-62
2022/08/31 13:45:56;;;;;;;;;;;23.20;42.60;;;;;;5099592;28;19946;-61
2022/08/31 13:48:28;;;;;;;;;;;23.20;42.60;;;;;;5086790;28;20000;-62
2022/08/31 13:50:58;;;;;;;;;;;23.20;42.60;;;;;;5088174;28;20025;-62
2022/08/31 13:53:38;;;;;;;;;;;23.20;42.60;;;;;;5084078;28;20018;-61
2022/08/31 13:56:53;;;;;;;;;;;23.30;42.60;;;;;;5100831;28;20005;-62
2022/08/31 13:59:17;;;;;;;;;;;23.20;42.50;;;;;;5101692;28;19963;-62
2022/08/31 14:01:46;;;;;;;;;;;23.20;42.60;;;;;;5087421;28;20365;-61
2022/08/31 14:04:42;;;;;;;;;;;23.20;42.60;;;;;;5080005;28;19924;-61
2022/08/31 14:07:19;;;;;;;;;;;23.20;42.60;;;;;;5102464;28;19927;-62
2022/08/31 14:09:46;;;;;;;;;;;23.30;42.70;;;;;;5100253;28;19920;-62
2022/08/31 14:12:20;;;;;;;;;;;23.30;42.70;;;;;;5100592;28;19947;-61
2022/08/31 14:14:49;;;;;;;;;;;23.30;42.70;;;;;;5098067;28;20413;-62
2022/08/31 14:17:16;;;;;;;;;;;23.30;42.70;;;;;;5101165;28;19948;-61
2022/08/31 14:19:43;;;;;;;;;;;23.30;42.70;;;;;;5091402;28;19924;-62
2022/08/31 14:22:15;;;;;;;;;;;23.30;42.70;;;;;;5099849;28;19989;-61
2022/08/31 14:24:43;;;;;;;;;;;23.30;42.70;;;;;;5106624;28;20002;-61
2022/08/31 14:27:16;;;;;;;;;;;23.30;42.70;;;;;;5098995;28;19920;-61
2022/08/31 14:29:42;;;;;;;;;;;23.30;42.70;;;;;;5087412;28;19977;-62
2022/08/31 14:32:10;;;;;;;;;;;23.30;42.70;;;;;;5101530;28;19982;-61
2022/08/31 14:34:45;;;;;;;;;;;23.30;42.70;;;;;;5082624;28;20277;-61
2022/08/31 14:37:15;;;;;;;;;;;23.30;42.70;;;;;;5099303;28;19928;-60
2022/08/31 14:39:42;;;;;;;;;;;23.30;42.70;;;;;;5100850;28;19928;-61
2022/08/31 14:42:13;;;;;;;;;;;23.30;42.60;;;;;;5086699;28;19924;-61